sensor_id;sensor_type;location;lat;lon;timestamp;P1;durP1;ratioP1;P2;durP2;ratioP2
13263;SDS011;6700;51.988;7.646;2023-08-31T00:01:06;8.60;;;4.70;;
13263;SDS011;6700;51.988;7.646;2023-08-31T00:03:33;12.13;;;5.30;;
13263;SDS011;6700;51.988;7.646;2023-08-31T00:06:01;6.57;;;4.43;;
13263;SDS011;6700;51.988;7.646;2023-08-31T00:08:29;6.53;;;4.40;;
13263;SDS011;6700;51.988;7.646;2023-08-31T00:10:57;8.73;;;4.63;;
13263;SDS011;6700;51.988;7.646;2023-08-31T00:13:24;9.03;;;4.70;;
13263;SDS011;6700;51.988;7.646;2023-08-31T00:15:54;5.00;;;4.13;;
13263;SDS011;6700;51.988;7.646;2023-08-31T00:18:25;6.27;;;5.03;;
13263;SDS011;6700;51.988;7.646;2023-08-31T00:20:53;7.93;;;4.40;;
13263;SDS011;6700;51.988;7.646;2023-08-31T00:23:21;8.33;;;4.40;;
13263;SDS011;6700;51.988;7.646;2023-08-31T00:25:48;5.50;;;4.37;;
13263;SDS011;6700;51.988;7.646;2023-08-31T00:28:17;5.23;;;4.37;;
13263;SDS011;6700;51.988;7.646;2023-08-31T00:30:45;6.07;;;4.40;;
13263;SDS011;6700;51.988;7.646;2023-08-31T00:33:13;4.50;;;4.10;;
13263;SDS011;6700;51.988;7.646;2023-08-31T00:35:41;5.37;;;3.97;;
13263;SDS011;6700;51.988;7.646;2023-08-31T00:38:13;6.50;;;4.27;;
13263;SDS011;6700;51.988;7.646;2023-08-31T00:40:43;5.50;;;4.97;;
13263;SDS011;6700;51.988;7.646;2023-08-31T00:43:14;4.97;;;3.93;;
13263;SDS011;6700;51.988;7.646;2023-08-31T00:45:45;8.10;;;4.50;;
13263;SDS011;6700;51.988;7.646;2023-08-31T00:48:14;4.97;;;4.50;;
13263;SDS011;6700;51.988;7.646;2023-08-31T00:50:43;6.20;;;4.30;;
13263;SDS011;6700;51.988;7.646;2023-08-31T00:53:16;10.60;;;4.83;;
13263;SDS011;6700;51.988;7.646;2023-08-31T00:55:44;4.70;;;4.27;;
13263;SDS011;6700;51.988;7.646;2023-08-31T00:58:11;6.17;;;4.63;;
13263;SDS011;6700;51.988;7.646;2023-08-31T01:03:58;6.13;;;4.50;;
13263;SDS011;6700;51.988;7.646;2023-08-31T01:08:43;5.60;;;4.67;;
13263;SDS011;6700;51.988;7.646;2023-08-31T01:11:24;4.67;;;4.13;;
13263;SDS011;6700;51.988;7.646;2023-08-31T01:13:58;8.03;;;5.20;;
13263;SDS011;6700;51.988;7.646;2023-08-31T01:16:29;12.00;;;5.60;;
13263;SDS011;6700;51.988;7.646;2023-08-31T01:19:00;6.33;;;5.10;;
13263;SDS011;6700;51.988;7.646;2023-08-31T01:21:30;7.90;;;4.77;;
13263;SDS011;6700;51.988;7.646;2023-08-31T01:24:02;7.63;;;5.23;;
13263;SDS011;6700;51.988;7.646;2023-08-31T01:26:30;11.37;;;6.30;;
13263;SDS011;6700;51.988;7.646;2023-08-31T01:28:57;8.30;;;5.33;;
13263;SDS011;6700;51.988;7.646;2023-08-31T01:31:25;5.83;;;4.93;;
13263;SDS011;6700;51.988;7.646;2023-08-31T01:33:52;7.43;;;5.10;;
13263;SDS011;6700;51.988;7.646;2023-08-31T01:36:29;7.33;;;4.93;;
13263;SDS011;6700;51.988;7.646;2023-08-31T01:39:06;7.00;;;5.50;;
13263;SDS011;6700;51.988;7.646;2023-08-31T01:41:46;9.13;;;5.03;;
13263;SDS011;6700;51.988;7.646;2023-08-31T01:44:17;6.10;;;4.53;;
13263;SDS011;6700;51.988;7.646;2023-08-31T01:46:46;10.43;;;5.07;;
13263;SDS011;6700;51.988;7.646;2023-08-31T01:49:14;6.83;;;4.70;;
13263;SDS011;6700;51.988;7.646;2023-08-31T01:51:41;6.50;;;4.13;;
13263;SDS011;6700;51.988;7.646;2023-08-31T01:54:08;6.33;;;5.80;;
13263;SDS011;6700;51.988;7.646;2023-08-31T01:56:36;9.37;;;5.50;;
13263;SDS011;6700;51.988;7.646;2023-08-31T01:59:03;8.50;;;5.77;;
13263;SDS011;6700;51.988;7.646;2023-08-31T02:01:32;7.50;;;5.43;;
13263;SDS011;6700;51.988;7.646;2023-08-31T02:03:59;11.60;;;5.90;;
13263;SDS011;6700;51.988;7.646;2023-08-31T02:06:27;6.53;;;5.17;;
13263;SDS011;6700;51.988;7.646;2023-08-31T02:08:54;8.20;;;5.80;;
13263;SDS011;6700;51.988;7.646;2023-08-31T02:11:21;6.13;;;5.23;;
13263;SDS011;6700;51.988;7.646;2023-08-31T02:13:48;12.67;;;5.10;;
13263;SDS011;6700;51.988;7.646;2023-08-31T02:16:15;5.33;;;4.77;;
13263;SDS011;6700;51.988;7.646;2023-08-31T02:18:48;7.17;;;4.60;;
13263;SDS011;6700;51.988;7.646;2023-08-31T02:21:15;6.73;;;5.00;;
13263;SDS011;6700;51.988;7.646;2023-08-31T02:23:43;7.27;;;4.63;;
13263;SDS011;6700;51.988;7.646;2023-08-31T02:26:11;4.90;;;4.50;;
13263;SDS011;6700;51.988;7.646;2023-08-31T02:28:38;5.30;;;4.80;;
13263;SDS011;6700;51.988;7.646;2023-08-31T02:31:06;8.00;;;4.90;;
13263;SDS011;6700;51.988;7.646;2023-08-31T02:33:34;4.83;;;4.43;;
13263;SDS011;6700;51.988;7.646;2023-08-31T02:36:01;5.03;;;4.53;;
13263;SDS011;6700;51.988;7.646;2023-08-31T02:38:28;7.03;;;4.93;;
13263;SDS011;6700;51.988;7.646;2023-08-31T02:40:56;6.03;;;5.10;;
13263;SDS011;6700;51.988;7.646;2023-08-31T02:43:28;5.87;;;4.43;;
13263;SDS011;6700;51.988;7.646;2023-08-31T02:46:00;7.57;;;4.20;;
13263;SDS011;6700;51.988;7.646;2023-08-31T02:48:27;6.10;;;4.67;;
13263;SDS011;6700;51.988;7.646;2023-08-31T02:50:59;5.93;;;4.33;;
13263;SDS011;6700;51.988;7.646;2023-08-31T02:53:32;4.70;;;4.17;;
13263;SDS011;6700;51.988;7.646;2023-08-31T02:56:01;4.70;;;4.20;;
13263;SDS011;6700;51.988;7.646;2023-08-31T02:58:30;6.37;;;3.90;;
13263;SDS011;6700;51.988;7.646;2023-08-31T03:01:11;5.07;;;3.90;;
13263;SDS011;6700;51.988;7.646;2023-08-31T03:03:38;4.70;;;3.90;;
13263;SDS011;6700;51.988;7.646;2023-08-31T03:06:07;4.60;;;3.73;;
13263;SDS011;6700;51.988;7.646;2023-08-31T03:08:35;4.97;;;4.47;;
13263;SDS011;6700;51.988;7.646;2023-08-31T03:11:07;5.87;;;4.60;;
13263;SDS011;6700;51.988;7.646;2023-08-31T03:13:36;5.17;;;4.67;;
13263;SDS011;6700;51.988;7.646;2023-08-31T03:16:04;5.50;;;4.43;;
13263;SDS011;6700;51.988;7.646;2023-08-31T03:18:31;9.77;;;4.97;;
13263;SDS011;6700;51.988;7.646;2023-08-31T03:20:59;6.50;;;5.03;;
13263;SDS011;6700;51.988;7.646;2023-08-31T03:23:29;8.50;;;5.43;;
13263;SDS011;6700;51.988;7.646;2023-08-31T03:25:58;6.80;;;5.70;;
13263;SDS011;6700;51.988;7.646;2023-08-31T03:28:30;5.90;;;5.07;;
13263;SDS011;6700;51.988;7.646;2023-08-31T03:30:57;7.10;;;5.47;;
13263;SDS011;6700;51.988;7.646;2023-08-31T03:33:25;7.80;;;5.70;;
13263;SDS011;6700;51.988;7.646;2023-08-31T03:35:53;9.43;;;5.60;;
13263;SDS011;6700;51.988;7.646;2023-08-31T03:38:21;7.93;;;5.90;;
13263;SDS011;6700;51.988;7.646;2023-08-31T03:40:53;8.77;;;5.67;;
13263;SDS011;6700;51.988;7.646;2023-08-31T03:43:21;8.40;;;6.50;;
13263;SDS011;6700;51.988;7.646;2023-08-31T03:45:48;9.03;;;6.50;;
13263;SDS011;6700;51.988;7.646;2023-08-31T03:48:17;9.40;;;6.80;;
13263;SDS011;6700;51.988;7.646;2023-08-31T03:50:45;7.97;;;6.47;;
13263;SDS011;6700;51.988;7.646;2023-08-31T03:53:15;9.13;;;6.80;;
13263;SDS011;6700;51.988;7.646;2023-08-31T03:55:43;8.00;;;7.20;;
13263;SDS011;6700;51.988;7.646;2023-08-31T03:58:11;11.87;;;7.30;;
13263;SDS011;6700;51.988;7.646;2023-08-31T04:00:40;10.00;;;7.70;;
13263;SDS011;6700;51.988;7.646;2023-08-31T04:03:08;15.10;;;8.00;;
13263;SDS011;6700;51.988;7.646;2023-08-31T04:05:36;10.97;;;8.83;;
13263;SDS011;6700;51.988;7.646;2023-08-31T04:08:04;10.13;;;7.57;;
13263;SDS011;6700;51.988;7.646;2023-08-31T04:10:33;12.67;;;8.10;;
13263;SDS011;6700;51.988;7.646;2023-08-31T04:13:00;13.63;;;8.57;;
13263;SDS011;6700;51.988;7.646;2023-08-31T04:15:28;8.77;;;7.83;;
13263;SDS011;6700;51.988;7.646;2023-08-31T04:17:57;9.50;;;8.10;;
13263;SDS011;6700;51.988;7.646;2023-08-31T04:20:24;9.27;;;8.27;;
13263;SDS011;6700;51.988;7.646;2023-08-31T04:22:51;11.60;;;9.03;;
13263;SDS011;6700;51.988;7.646;2023-08-31T04:25:21;10.03;;;8.83;;
13263;SDS011;6700;51.988;7.646;2023-08-31T04:27:48;8.90;;;8.00;;
13263;SDS011;6700;51.988;7.646;2023-08-31T04:30:15;11.33;;;9.20;;
13263;SDS011;6700;51.988;7.646;2023-08-31T04:32:44;10.43;;;9.03;;
13263;SDS011;6700;51.988;7.646;2023-08-31T04:35:13;10.10;;;9.00;;
13263;SDS011;6700;51.988;7.646;2023-08-31T04:37:41;11.03;;;9.30;;
13263;SDS011;6700;51.988;7.646;2023-08-31T04:40:09;12.83;;;10.40;;
13263;SDS011;6700;51.988;7.646;2023-08-31T04:42:39;13.60;;;10.80;;
13263;SDS011;6700;51.988;7.646;2023-08-31T04:45:07;11.27;;;10.07;;
13263;SDS011;6700;51.988;7.646;2023-08-31T04:47:34;13.87;;;11.27;;
13263;SDS011;6700;51.988;7.646;2023-08-31T04:50:02;11.27;;;9.93;;
13263;SDS011;6700;51.988;7.646;2023-08-31T04:52:31;11.47;;;10.27;;
13263;SDS011;6700;51.988;7.646;2023-08-31T04:55:00;18.43;;;11.13;;
13263;SDS011;6700;51.988;7.646;2023-08-31T04:57:27;19.37;;;11.13;;
13263;SDS011;6700;51.988;7.646;2023-08-31T04:59:54;15.50;;;11.93;;
13263;SDS011;6700;51.988;7.646;2023-08-31T05:02:22;15.37;;;12.10;;
13263;SDS011;6700;51.988;7.646;2023-08-31T05:04:50;13.87;;;12.03;;
13263;SDS011;6700;51.988;7.646;2023-08-31T05:07:17;18.90;;;12.93;;
13263;SDS011;6700;51.988;7.646;2023-08-31T05:09:44;15.07;;;11.70;;
13263;SDS011;6700;51.988;7.646;2023-08-31T05:12:12;13.47;;;11.67;;
13263;SDS011;6700;51.988;7.646;2023-08-31T05:14:39;17.87;;;12.57;;
13263;SDS011;6700;51.988;7.646;2023-08-31T05:17:06;14.30;;;12.20;;
13263;SDS011;6700;51.988;7.646;2023-08-31T05:19:33;15.17;;;13.03;;
13263;SDS011;6700;51.988;7.646;2023-08-31T05:22:01;16.63;;;13.57;;
13263;SDS011;6700;51.988;7.646;2023-08-31T05:24:28;15.33;;;12.60;;
13263;SDS011;6700;51.988;7.646;2023-08-31T05:26:56;19.70;;;13.73;;
13263;SDS011;6700;51.988;7.646;2023-08-31T05:29:23;17.53;;;14.47;;
13263;SDS011;6700;51.988;7.646;2023-08-31T05:31:53;16.40;;;14.70;;
13263;SDS011;6700;51.988;7.646;2023-08-31T05:34:21;17.23;;;13.67;;
13263;SDS011;6700;51.988;7.646;2023-08-31T05:36:49;15.30;;;13.70;;
13263;SDS011;6700;51.988;7.646;2023-08-31T05:39:16;16.10;;;14.40;;
13263;SDS011;6700;51.988;7.646;2023-08-31T05:41:43;18.70;;;14.27;;
13263;SDS011;6700;51.988;7.646;2023-08-31T05:44:11;16.17;;;14.47;;
13263;SDS011;6700;51.988;7.646;2023-08-31T05:46:38;18.93;;;14.73;;
13263;SDS011;6700;51.988;7.646;2023-08-31T05:49:07;16.10;;;14.33;;
13263;SDS011;6700;51.988;7.646;2023-08-31T05:51:35;24.73;;;15.07;;
13263;SDS011;6700;51.988;7.646;2023-08-31T05:54:02;17.40;;;14.73;;
13263;SDS011;6700;51.988;7.646;2023-08-31T05:56:29;20.40;;;15.13;;
13263;SDS011;6700;51.988;7.646;2023-08-31T05:58:57;15.37;;;13.77;;
13263;SDS011;6700;51.988;7.646;2023-08-31T06:01:24;17.50;;;14.27;;
13263;SDS011;6700;51.988;7.646;2023-08-31T06:03:51;16.03;;;14.37;;
13263;SDS011;6700;51.988;7.646;2023-08-31T06:06:19;17.53;;;14.57;;
13263;SDS011;6700;51.988;7.646;2023-08-31T06:08:46;17.90;;;15.13;;
13263;SDS011;6700;51.988;7.646;2023-08-31T06:11:15;16.53;;;14.70;;
13263;SDS011;6700;51.988;7.646;2023-08-31T06:13:42;19.80;;;14.17;;
13263;SDS011;6700;51.988;7.646;2023-08-31T06:16:09;18.83;;;14.63;;
13263;SDS011;6700;51.988;7.646;2023-08-31T06:18:37;16.47;;;14.80;;
13263;SDS011;6700;51.988;7.646;2023-08-31T06:21:04;21.27;;;15.73;;
13263;SDS011;6700;51.988;7.646;2023-08-31T06:23:32;21.23;;;17.63;;
13263;SDS011;6700;51.988;7.646;2023-08-31T06:26:01;19.27;;;16.67;;
13263;SDS011;6700;51.988;7.646;2023-08-31T06:28:30;22.53;;;16.97;;
13263;SDS011;6700;51.988;7.646;2023-08-31T06:30:58;18.80;;;16.63;;
13263;SDS011;6700;51.988;7.646;2023-08-31T06:33:26;19.33;;;17.20;;
13263;SDS011;6700;51.988;7.646;2023-08-31T06:35:54;20.70;;;17.00;;
13263;SDS011;6700;51.988;7.646;2023-08-31T06:38:21;20.73;;;17.87;;
13263;SDS011;6700;51.988;7.646;2023-08-31T06:40:51;18.23;;;15.97;;
13263;SDS011;6700;51.988;7.646;2023-08-31T06:43:24;19.97;;;17.83;;
13263;SDS011;6700;51.988;7.646;2023-08-31T06:45:54;23.67;;;18.07;;
13263;SDS011;6700;51.988;7.646;2023-08-31T06:48:35;20.30;;;17.50;;
13263;SDS011;6700;51.988;7.646;2023-08-31T06:51:02;22.10;;;17.80;;
13263;SDS011;6700;51.988;7.646;2023-08-31T06:53:31;21.23;;;18.97;;
13263;SDS011;6700;51.988;7.646;2023-08-31T06:56:00;19.97;;;17.87;;
13263;SDS011;6700;51.988;7.646;2023-08-31T06:58:28;24.80;;;18.73;;
13263;SDS011;6700;51.988;7.646;2023-08-31T07:00:55;20.03;;;17.90;;
13263;SDS011;6700;51.988;7.646;2023-08-31T07:03:23;21.03;;;18.03;;
13263;SDS011;6700;51.988;7.646;2023-08-31T07:05:52;20.70;;;18.10;;
13263;SDS011;6700;51.988;7.646;2023-08-31T07:08:20;20.27;;;16.93;;
13263;SDS011;6700;51.988;7.646;2023-08-31T07:10:49;22.33;;;18.23;;
13263;SDS011;6700;51.988;7.646;2023-08-31T07:13:16;19.53;;;17.50;;
13263;SDS011;6700;51.988;7.646;2023-08-31T07:15:44;20.87;;;18.70;;
13263;SDS011;6700;51.988;7.646;2023-08-31T07:18:12;19.70;;;16.47;;
13263;SDS011;6700;51.988;7.646;2023-08-31T07:20:39;20.03;;;16.73;;
13263;SDS011;6700;51.988;7.646;2023-08-31T07:23:06;21.03;;;16.70;;
13263;SDS011;6700;51.988;7.646;2023-08-31T07:25:33;20.83;;;17.47;;
13263;SDS011;6700;51.988;7.646;2023-08-31T07:28:00;18.23;;;16.20;;
13263;SDS011;6700;51.988;7.646;2023-08-31T07:30:29;22.37;;;18.50;;
13263;SDS011;6700;51.988;7.646;2023-08-31T07:32:56;20.13;;;14.97;;
13263;SDS011;6700;51.988;7.646;2023-08-31T07:35:26;19.37;;;16.93;;
13263;SDS011;6700;51.988;7.646;2023-08-31T07:37:53;20.33;;;17.67;;
13263;SDS011;6700;51.988;7.646;2023-08-31T07:40:20;22.30;;;16.13;;
13263;SDS011;6700;51.988;7.646;2023-08-31T07:42:47;17.77;;;15.73;;
13263;SDS011;6700;51.988;7.646;2023-08-31T07:45:16;18.30;;;15.47;;
13263;SDS011;6700;51.988;7.646;2023-08-31T07:47:43;16.63;;;13.77;;
13263;SDS011;6700;51.988;7.646;2023-08-31T07:50:10;15.43;;;13.83;;
13263;SDS011;6700;51.988;7.646;2023-08-31T07:52:38;15.63;;;13.07;;
13263;SDS011;6700;51.988;7.646;2023-08-31T07:55:05;13.43;;;11.53;;
13263;SDS011;6700;51.988;7.646;2023-08-31T07:57:32;12.67;;;11.20;;
13263;SDS011;6700;51.988;7.646;2023-08-31T08:00:00;13.13;;;11.40;;
13263;SDS011;6700;51.988;7.646;2023-08-31T08:02:30;11.77;;;10.00;;
13263;SDS011;6700;51.988;7.646;2023-08-31T08:04:58;12.50;;;11.17;;
13263;SDS011;6700;51.988;7.646;2023-08-31T08:07:25;11.70;;;10.03;;
13263;SDS011;6700;51.988;7.646;2023-08-31T08:09:52;11.40;;;9.70;;
13263;SDS011;6700;51.988;7.646;2023-08-31T08:12:19;12.50;;;9.37;;
13263;SDS011;6700;51.988;7.646;2023-08-31T08:14:46;11.40;;;9.67;;
13263;SDS011;6700;51.988;7.646;2023-08-31T08:17:14;10.70;;;8.57;;
13263;SDS011;6700;51.988;7.646;2023-08-31T08:19:41;10.80;;;8.57;;
13263;SDS011;6700;51.988;7.646;2023-08-31T08:22:08;10.03;;;8.03;;
13263;SDS011;6700;51.988;7.646;2023-08-31T08:24:36;7.77;;;6.77;;
13263;SDS011;6700;51.988;7.646;2023-08-31T08:27:03;7.33;;;6.70;;
13263;SDS011;6700;51.988;7.646;2023-08-31T08:29:31;9.87;;;7.43;;
13263;SDS011;6700;51.988;7.646;2023-08-31T08:31:58;7.77;;;6.93;;
13263;SDS011;6700;51.988;7.646;2023-08-31T08:34:27;7.20;;;6.50;;
13263;SDS011;6700;51.988;7.646;2023-08-31T08:36:56;7.33;;;6.20;;
13263;SDS011;6700;51.988;7.646;2023-08-31T08:39:31;11.57;;;9.67;;
13263;SDS011;6700;51.988;7.646;2023-08-31T08:41:58;7.53;;;6.33;;
13263;SDS011;6700;51.988;7.646;2023-08-31T08:44:25;6.23;;;5.50;;
13263;SDS011;6700;51.988;7.646;2023-08-31T08:46:54;5.90;;;5.30;;
13263;SDS011;6700;51.988;7.646;2023-08-31T08:49:24;5.80;;;5.20;;
13263;SDS011;6700;51.988;7.646;2023-08-31T08:51:53;8.80;;;5.60;;
13263;SDS011;6700;51.988;7.646;2023-08-31T08:54:22;6.10;;;4.93;;
13263;SDS011;6700;51.988;7.646;2023-08-31T08:56:49;6.93;;;5.20;;
13263;SDS011;6700;51.988;7.646;2023-08-31T08:59:17;6.13;;;4.93;;
13263;SDS011;6700;51.988;7.646;2023-08-31T09:01:45;5.30;;;4.50;;
13263;SDS011;6700;51.988;7.646;2023-08-31T09:04:12;5.60;;;5.07;;
13263;SDS011;6700;51.988;7.646;2023-08-31T09:06:40;5.50;;;5.00;;
13263;SDS011;6700;51.988;7.646;2023-08-31T09:09:08;7.93;;;4.57;;
13263;SDS011;6700;51.988;7.646;2023-08-31T09:11:36;8.97;;;5.63;;
13263;SDS011;6700;51.988;7.646;2023-08-31T09:14:19;4.53;;;4.13;;
13263;SDS011;6700;51.988;7.646;2023-08-31T09:16:51;7.17;;;4.87;;
13263;SDS011;6700;51.988;7.646;2023-08-31T09:19:25;4.33;;;3.80;;
13263;SDS011;6700;51.988;7.646;2023-08-31T09:21:56;4.50;;;4.07;;
13263;SDS011;6700;51.988;7.646;2023-08-31T09:24:27;4.97;;;4.23;;
13263;SDS011;6700;51.988;7.646;2023-08-31T09:26:57;4.53;;;3.77;;
13263;SDS011;6700;51.988;7.646;2023-08-31T09:29:25;4.87;;;4.33;;
13263;SDS011;6700;51.988;7.646;2023-08-31T09:31:52;7.97;;;3.63;;
13263;SDS011;6700;51.988;7.646;2023-08-31T09:34:20;4.47;;;3.33;;
13263;SDS011;6700;51.988;7.646;2023-08-31T09:36:48;4.30;;;3.17;;
13263;SDS011;6700;51.988;7.646;2023-08-31T09:39:17;3.40;;;3.03;;
13263;SDS011;6700;51.988;7.646;2023-08-31T09:41:54;4.77;;;3.20;;
13263;SDS011;6700;51.988;7.646;2023-08-31T09:44:23;3.57;;;3.00;;
13263;SDS011;6700;51.988;7.646;2023-08-31T09:46:50;3.50;;;3.20;;
13263;SDS011;6700;51.988;7.646;2023-08-31T09:49:19;5.27;;;3.10;;
13263;SDS011;6700;51.988;7.646;2023-08-31T09:51:48;5.00;;;2.90;;
13263;SDS011;6700;51.988;7.646;2023-08-31T09:54:16;3.80;;;2.73;;
13263;SDS011;6700;51.988;7.646;2023-08-31T09:56:45;5.07;;;2.80;;
13263;SDS011;6700;51.988;7.646;2023-08-31T09:59:13;3.63;;;2.30;;
13263;SDS011;6700;51.988;7.646;2023-08-31T10:01:40;3.67;;;2.60;;
13263;SDS011;6700;51.988;7.646;2023-08-31T10:04:08;4.17;;;2.53;;
13263;SDS011;6700;51.988;7.646;2023-08-31T10:06:35;4.03;;;2.80;;
13263;SDS011;6700;51.988;7.646;2023-08-31T10:09:03;2.67;;;2.17;;
13263;SDS011;6700;51.988;7.646;2023-08-31T10:11:31;3.50;;;2.33;;
13263;SDS011;6700;51.988;7.646;2023-08-31T10:13:58;4.30;;;2.30;;
13263;SDS011;6700;51.988;7.646;2023-08-31T10:16:26;3.43;;;2.13;;
13263;SDS011;6700;51.988;7.646;2023-08-31T10:18:56;3.70;;;1.93;;
13263;SDS011;6700;51.988;7.646;2023-08-31T10:21:24;5.57;;;1.87;;
13263;SDS011;6700;51.988;7.646;2023-08-31T10:23:51;3.40;;;1.93;;
13263;SDS011;6700;51.988;7.646;2023-08-31T10:26:28;2.40;;;1.90;;
13263;SDS011;6700;51.988;7.646;2023-08-31T10:28:56;3.47;;;1.73;;
13263;SDS011;6700;51.988;7.646;2023-08-31T10:31:27;3.20;;;1.67;;
13263;SDS011;6700;51.988;7.646;2023-08-31T10:33:59;1.73;;;1.63;;
13263;SDS011;6700;51.988;7.646;2023-08-31T10:36:39;3.03;;;1.73;;
13263;SDS011;6700;51.988;7.646;2023-08-31T10:41:54;5.23;;;2.50;;
13263;SDS011;6700;51.988;7.646;2023-08-31T10:44:25;2.23;;;1.57;;
13263;SDS011;6700;51.988;7.646;2023-08-31T10:46:53;1.90;;;1.40;;
13263;SDS011;6700;51.988;7.646;2023-08-31T10:49:21;2.23;;;1.17;;
13263;SDS011;6700;51.988;7.646;2023-08-31T10:52:00;4.63;;;1.60;;
13263;SDS011;6700;51.988;7.646;2023-08-31T10:54:35;5.10;;;2.47;;
13263;SDS011;6700;51.988;7.646;2023-08-31T10:57:04;3.38;;;1.60;;
13263;SDS011;6700;51.988;7.646;2023-08-31T10:59:45;3.60;;;1.70;;
13263;SDS011;6700;51.988;7.646;2023-08-31T11:07:31;1.27;;;1.17;;
13263;SDS011;6700;51.988;7.646;2023-08-31T11:10:06;1.55;;;1.35;;
13263;SDS011;6700;51.988;7.646;2023-08-31T11:12:34;2.55;;;1.13;;
13263;SDS011;6700;51.988;7.646;2023-08-31T11:15:01;2.83;;;1.50;;
13263;SDS011;6700;51.988;7.646;2023-08-31T11:17:30;3.40;;;1.48;;
13263;SDS011;6700;51.988;7.646;2023-08-31T11:20:00;7.93;;;1.40;;
13263;SDS011;6700;51.988;7.646;2023-08-31T11:22:31;2.50;;;1.13;;
13263;SDS011;6700;51.988;7.646;2023-08-31T11:25:02;3.27;;;1.23;;
13263;SDS011;6700;51.988;7.646;2023-08-31T11:27:31;8.80;;;1.83;;
13263;SDS011;6700;51.988;7.646;2023-08-31T11:29:58;3.27;;;1.80;;
13263;SDS011;6700;51.988;7.646;2023-08-31T11:32:27;2.37;;;1.77;;
13263;SDS011;6700;51.988;7.646;2023-08-31T11:34:54;4.27;;;1.60;;
13263;SDS011;6700;51.988;7.646;2023-08-31T11:37:21;3.87;;;1.17;;
13263;SDS011;6700;51.988;7.646;2023-08-31T11:39:49;2.10;;;1.43;;
13263;SDS011;6700;51.988;7.646;2023-08-31T11:42:19;4.33;;;2.10;;
13263;SDS011;6700;51.988;7.646;2023-08-31T11:44:51;2.07;;;1.50;;
13263;SDS011;6700;51.988;7.646;2023-08-31T11:47:19;6.47;;;2.73;;
13263;SDS011;6700;51.988;7.646;2023-08-31T11:49:48;2.03;;;1.30;;
13263;SDS011;6700;51.988;7.646;2023-08-31T11:52:17;3.93;;;1.40;;
13263;SDS011;6700;51.988;7.646;2023-08-31T11:54:44;1.50;;;1.30;;
13263;SDS011;6700;51.988;7.646;2023-08-31T11:57:12;2.33;;;1.03;;
13263;SDS011;6700;51.988;7.646;2023-08-31T11:59:40;2.80;;;1.43;;
13263;SDS011;6700;51.988;7.646;2023-08-31T12:02:07;3.60;;;1.67;;
13263;SDS011;6700;51.988;7.646;2023-08-31T12:04:45;2.77;;;1.57;;
13263;SDS011;6700;51.988;7.646;2023-08-31T12:07:17;3.40;;;1.60;;
13263;SDS011;6700;51.988;7.646;2023-08-31T12:09:45;3.00;;;1.67;;
13263;SDS011;6700;51.988;7.646;2023-08-31T12:12:19;3.67;;;1.80;;
13263;SDS011;6700;51.988;7.646;2023-08-31T12:14:47;2.97;;;1.70;;
13263;SDS011;6700;51.988;7.646;2023-08-31T12:17:18;4.10;;;2.13;;
13263;SDS011;6700;51.988;7.646;2023-08-31T12:19:45;4.27;;;2.07;;
13263;SDS011;6700;51.988;7.646;2023-08-31T12:22:12;3.73;;;2.00;;
13263;SDS011;6700;51.988;7.646;2023-08-31T12:24:40;3.77;;;1.93;;
13263;SDS011;6700;51.988;7.646;2023-08-31T12:27:08;2.33;;;2.13;;
13263;SDS011;6700;51.988;7.646;2023-08-31T12:29:35;6.27;;;2.60;;
13263;SDS011;6700;51.988;7.646;2023-08-31T12:32:02;2.80;;;2.60;;
13263;SDS011;6700;51.988;7.646;2023-08-31T12:34:30;3.23;;;2.73;;
13263;SDS011;6700;51.988;7.646;2023-08-31T12:36:57;3.33;;;2.57;;
13263;SDS011;6700;51.988;7.646;2023-08-31T12:39:28;5.67;;;3.00;;
13263;SDS011;6700;51.988;7.646;2023-08-31T12:41:55;5.07;;;2.97;;
13263;SDS011;6700;51.988;7.646;2023-08-31T12:44:41;3.53;;;2.07;;
13263;SDS011;6700;51.988;7.646;2023-08-31T12:47:09;1.90;;;1.63;;
13263;SDS011;6700;51.988;7.646;2023-08-31T12:49:36;2.93;;;1.57;;
13263;SDS011;6700;51.988;7.646;2023-08-31T12:52:03;3.27;;;1.67;;
13263;SDS011;6700;51.988;7.646;2023-08-31T12:54:30;2.47;;;1.60;;
13263;SDS011;6700;51.988;7.646;2023-08-31T12:56:57;3.20;;;1.57;;
13263;SDS011;6700;51.988;7.646;2023-08-31T12:59:25;2.07;;;1.30;;
13263;SDS011;6700;51.988;7.646;2023-08-31T13:01:52;1.70;;;1.60;;
13263;SDS011;6700;51.988;7.646;2023-08-31T13:04:19;2.07;;;1.70;;
13263;SDS011;6700;51.988;7.646;2023-08-31T13:06:47;1.40;;;1.30;;
13263;SDS011;6700;51.988;7.646;2023-08-31T13:09:14;1.63;;;1.30;;
13263;SDS011;6700;51.988;7.646;2023-08-31T13:11:44;2.50;;;2.10;;
13263;SDS011;6700;51.988;7.646;2023-08-31T13:14:12;2.20;;;1.83;;
13263;SDS011;6700;51.988;7.646;2023-08-31T13:16:39;2.57;;;2.13;;
13263;SDS011;6700;51.988;7.646;2023-08-31T13:19:07;4.87;;;3.30;;
13263;SDS011;6700;51.988;7.646;2023-08-31T13:21:34;4.67;;;3.20;;
13263;SDS011;6700;51.988;7.646;2023-08-31T13:24:01;7.83;;;4.87;;
13263;SDS011;6700;51.988;7.646;2023-08-31T13:26:30;6.33;;;4.07;;
13263;SDS011;6700;51.988;7.646;2023-08-31T13:29:02;5.70;;;5.20;;
13263;SDS011;6700;51.988;7.646;2023-08-31T13:31:32;7.50;;;5.27;;
13263;SDS011;6700;51.988;7.646;2023-08-31T13:34:01;5.03;;;4.57;;
13263;SDS011;6700;51.988;7.646;2023-08-31T13:36:29;5.80;;;5.20;;
13263;SDS011;6700;51.988;7.646;2023-08-31T13:38:57;5.60;;;4.70;;
13263;SDS011;6700;51.988;7.646;2023-08-31T13:41:24;5.00;;;4.60;;
13263;SDS011;6700;51.988;7.646;2023-08-31T13:43:51;6.00;;;4.53;;
13263;SDS011;6700;51.988;7.646;2023-08-31T13:46:18;6.17;;;4.60;;
13263;SDS011;6700;51.988;7.646;2023-08-31T13:48:46;8.70;;;4.80;;
13263;SDS011;6700;51.988;7.646;2023-08-31T13:51:14;7.17;;;4.93;;
13263;SDS011;6700;51.988;7.646;2023-08-31T13:53:41;5.10;;;4.27;;
13263;SDS011;6700;51.988;7.646;2023-08-31T13:56:08;5.13;;;4.67;;
13263;SDS011;6700;51.988;7.646;2023-08-31T13:58:36;4.93;;;4.43;;
13263;SDS011;6700;51.988;7.646;2023-08-31T14:01:03;4.17;;;3.77;;
13263;SDS011;6700;51.988;7.646;2023-08-31T14:03:31;5.87;;;3.77;;
13263;SDS011;6700;51.988;7.646;2023-08-31T14:05:58;5.93;;;4.03;;
13263;SDS011;6700;51.988;7.646;2023-08-31T14:08:26;4.90;;;4.33;;
13263;SDS011;6700;51.988;7.646;2023-08-31T14:10:53;5.20;;;3.80;;
13263;SDS011;6700;51.988;7.646;2023-08-31T14:13:22;5.47;;;3.20;;
13263;SDS011;6700;51.988;7.646;2023-08-31T14:15:49;4.40;;;3.43;;
13263;SDS011;6700;51.988;7.646;2023-08-31T14:18:16;3.60;;;3.30;;
13263;SDS011;6700;51.988;7.646;2023-08-31T14:20:44;4.40;;;3.50;;
13263;SDS011;6700;51.988;7.646;2023-08-31T14:23:11;4.07;;;3.40;;
13263;SDS011;6700;51.988;7.646;2023-08-31T14:25:39;4.67;;;3.33;;
13263;SDS011;6700;51.988;7.646;2023-08-31T14:28:06;5.03;;;3.93;;
13263;SDS011;6700;51.988;7.646;2023-08-31T14:30:37;5.03;;;3.57;;
13263;SDS011;6700;51.988;7.646;2023-08-31T14:33:05;6.30;;;4.17;;
13263;SDS011;6700;51.988;7.646;2023-08-31T14:35:35;6.13;;;4.33;;
13263;SDS011;6700;51.988;7.646;2023-08-31T14:38:09;4.67;;;4.20;;
13263;SDS011;6700;51.988;7.646;2023-08-31T14:40:41;4.53;;;4.13;;
13263;SDS011;6700;51.988;7.646;2023-08-31T14:43:12;5.77;;;3.90;;
13263;SDS011;6700;51.988;7.646;2023-08-31T14:45:39;4.23;;;3.83;;
13263;SDS011;6700;51.988;7.646;2023-08-31T14:48:07;6.53;;;3.60;;
13263;SDS011;6700;51.988;7.646;2023-08-31T14:50:34;5.07;;;4.07;;
13263;SDS011;6700;51.988;7.646;2023-08-31T14:53:02;4.43;;;4.00;;
13263;SDS011;6700;51.988;7.646;2023-08-31T14:55:32;5.00;;;3.93;;
13263;SDS011;6700;51.988;7.646;2023-08-31T14:57:59;5.77;;;4.97;;
13263;SDS011;6700;51.988;7.646;2023-08-31T15:00:27;4.60;;;4.17;;
13263;SDS011;6700;51.988;7.646;2023-08-31T15:02:55;4.97;;;4.07;;
13263;SDS011;6700;51.988;7.646;2023-08-31T15:05:23;3.83;;;3.53;;
13263;SDS011;6700;51.988;7.646;2023-08-31T15:07:53;3.70;;;3.40;;
13263;SDS011;6700;51.988;7.646;2023-08-31T15:10:20;4.67;;;4.10;;
13263;SDS011;6700;51.988;7.646;2023-08-31T15:12:47;3.93;;;3.43;;
13263;SDS011;6700;51.988;7.646;2023-08-31T15:15:17;4.93;;;3.27;;